Cornell, Michigan
Current Conditions -  °F | °C
As of 5:35 PM on Monday 24 Nov 2014 (Local Time) from KESC Reporting Station
Overcast Overcast  
Wind Chill: 20°   Ceiling: 2400
Heat Index: 30°   Visibility: 5mi
Dew Point: 23°   Wind: 14mph
Humidity: 75%   Direction: 340°NNW
Pressure: 29.24"   Gusts: 24mph
Location:  45.9°N, 87.22°W
Report Text: KESC 242235Z AUTO 34012G21KT 5SM OVC024 M01/M05 A2924 RMK AO1
Loading
Personal Weather Stations






























Interactive Weather Map New forecast layout! Learn more

10-Day Weather Forecast

Advertisements
Track Severe Weather on mobile